Time;durP1;ratioP1;P1;durP2;ratioP2;P2;SDS_P1;SDS_P2;PMS_P1;PMS_P2;Temp;Humidity;BMP_temperature;BMP_pressure;BME280_temperature;BME280_humidity;BME280_pressure;Samples;Min_cycle;Max_cycle;Signal;HPM_P1;HPM_P2
2023/09/18 00:04:13;;;;;;;69.75;41.08;;;;;;;16.25;100.00;100810.41;10296162;28;20039;-74
2023/09/18 00:09:13;;;;;;;66.30;40.88;;;;;;;16.22;100.00;100788.78;10315245;28;20046;-82
2023/09/18 00:14:14;;;;;;;67.68;39.70;;;;;;;16.08;100.00;100760.03;10315448;28;20042;-81
2023/09/18 00:19:14;;;;;;;67.38;39.90;;;;;;;16.16;100.00;100766.91;10314210;28;20049;-82
2023/09/18 00:24:15;;;;;;;65.88;41.20;;;;;;;16.16;100.00;100753.84;10306845;28;20058;-83
2023/09/18 00:29:15;;;;;;;62.45;38.50;;;;;;;16.06;100.00;100720.63;10312873;28;20043;-81
2023/09/18 00:34:16;;;;;;;60.55;38.60;;;;;;;16.09;100.00;100728.38;10317694;28;20042;-81
2023/09/18 00:39:17;;;;;;;63.53;38.80;;;;;;;15.99;100.00;100689.63;10309840;28;20494;-83
2023/09/18 00:44:17;;;;;;;64.47;39.85;;;;;;;16.08;100.00;100679.50;10309201;28;20042;-82
2023/09/18 00:49:18;;;;;;;70.88;41.15;;;;;;;16.13;100.00;100662.78;10317875;28;20046;-75
2023/09/18 00:54:18;;;;;;;68.53;41.65;;;;;;;16.06;100.00;100645.66;10311908;28;20486;-82
2023/09/18 00:59:19;;;;;;;69.72;43.20;;;;;;;16.17;100.00;100641.63;10299864;28;20047;-83
2023/09/18 01:04:20;;;;;;;71.60;41.70;;;;;;;16.19;100.00;100631.06;10312495;28;20082;-84
2023/09/18 01:09:20;;;;;;;71.57;44.05;;;;;;;16.20;100.00;100618.81;10312891;28;20046;-84
2023/09/18 01:14:24;;;;;;;71.07;43.08;;;;;;;16.21;100.00;100594.66;10319868;28;20043;-83
2023/09/18 01:19:41;;;;;;;71.47;43.38;;;;;;;16.26;100.00;100583.47;10306325;28;20042;-82
2023/09/18 01:24:42;;;;;;;;;;;;;;;16.26;100.00;100581.50;10304801;28;20038;-83
2023/09/18 01:29:43;;;;;;;73.75;42.95;;;;;;;16.23;100.00;100573.78;10317518;28;19922;-83
2023/09/18 01:34:50;;;;;;;72.38;43.85;;;;;;;16.22;100.00;100582.41;10324129;28;20044;-83
2023/09/18 01:39:51;;;;;;;78.00;44.25;;;;;;;16.19;100.00;100567.19;10319863;28;20059;-83
2023/09/18 01:44:52;;;;;;;75.25;43.78;;;;;;;16.16;100.00;100566.94;10311703;28;20089;-82
2023/09/18 01:49:52;;;;;;;65.47;42.08;;;;;;;16.14;100.00;100575.56;10319036;28;20115;-83
2023/09/18 01:54:53;;;;;;;72.65;43.20;;;;;;;16.15;100.00;100566.13;10308324;28;20046;-84
2023/09/18 01:59:53;;;;;;;68.72;41.45;;;;;;;16.13;100.00;100562.81;10302247;28;20046;-83
2023/09/18 02:04:54;;;;;;;64.70;41.10;;;;;;;16.10;100.00;100542.03;10304824;28;20082;-86
2023/09/18 02:09:54;;;;;;;64.60;39.53;;;;;;;16.11;100.00;100543.66;10311650;28;20043;-82
2023/09/18 02:14:57;;;;;;;69.45;41.88;;;;;;;16.10;100.00;100527.28;10300234;28;20119;-77
2023/09/18 02:19:57;;;;;;;63.60;39.20;;;;;;;16.05;100.00;100522.66;10314311;28;20062;-83
2023/09/18 02:24:58;;;;;;;65.53;38.63;;;;;;;16.09;100.00;100514.56;10316400;28;20094;-83
2023/09/18 02:29:58;;;;;;;60.83;36.42;;;;;;;16.12;100.00;100516.72;10325826;28;20053;-82
2023/09/18 02:34:59;;;;;;;67.43;38.33;;;;;;;16.14;100.00;100506.13;10323714;28;20035;-85
2023/09/18 02:40:00;;;;;;;58.90;37.38;;;;;;;16.14;100.00;100503.34;10308553;28;20046;-85
2023/09/18 02:45:00;;;;;;;56.47;34.15;;;;;;;16.16;100.00;100505.84;10321195;28;20505;-84
2023/09/18 02:50:01;;;;;;;56.33;34.03;;;;;;;16.16;100.00;100495.56;10319807;28;20066;-86
2023/09/18 02:55:02;;;;;;;55.22;33.60;;;;;;;16.14;100.00;100470.03;10312863;28;20042;-85
2023/09/18 03:00:03;;;;;;;52.20;32.63;;;;;;;16.14;100.00;100458.91;10316343;28;20047;-83
2023/09/18 03:05:04;;;;;;;54.72;32.78;;;;;;;16.14;100.00;100456.16;10325903;28;20039;-84
2023/09/18 03:10:05;;;;;;;52.58;32.50;;;;;;;16.14;100.00;100448.66;10319872;28;20077;-85
2023/09/18 03:15:06;;;;;;;51.75;32.53;;;;;;;16.16;100.00;100437.22;10307511;28;20043;-78
2023/09/18 03:20:08;;;;;;;48.17;31.80;;;;;;;16.10;100.00;100402.34;10306319;28;21746;-87
2023/09/18 03:25:10;;;;;;;55.35;30.77;;;;;;;16.19;100.00;100411.66;10302746;28;20082;-85
2023/09/18 03:30:15;;;;;;;46.47;30.15;;;;;;;16.19;100.00;100394.97;10319990;28;20053;-86
2023/09/18 03:35:19;;;;;;;49.88;31.73;;;;;;;16.20;100.00;100395.78;10314724;28;20035;-85
2023/09/18 03:40:19;;;;;;;54.25;31.27;;;;;;;16.19;100.00;100375.53;10303151;28;20042;-84
2023/09/18 03:45:20;;;;;;;56.25;31.70;;;;;;;16.19;100.00;100356.09;10304709;28;20034;-83
2023/09/18 03:50:20;;;;;;;48.55;29.63;;;;;;;16.19;100.00;100336.66;10303822;28;20042;-87
2023/09/18 03:55:21;;;;;;;55.03;29.88;;;;;;;16.19;100.00;100327.50;10311266;28;20049;-85
2023/09/18 04:00:22;;;;;;;54.05;30.35;;;;;;;16.16;100.00;100306.69;10319823;28;20061;-85
2023/09/18 04:05:24;;;;;;;50.13;30.50;;;;;;;16.21;100.00;100287.19;10280396;28;20042;-83
2023/09/18 04:10:24;;;;;;;51.03;30.92;;;;;;;16.21;100.00;100267.75;10291307;28;20038;-83
2023/09/18 04:15:25;;;;;;;50.05;30.73;;;;;;;16.24;100.00;100256.00;10292909;28;20085;-83
2023/09/18 04:20:27;;;;;;;49.80;30.67;;;;;;;16.26;100.00;100242.63;10313870;28;20071;-83
2023/09/18 04:25:27;;;;;;;48.85;28.88;;;;;;;16.33;100.00;100229.16;10313186;28;20049;-84
2023/09/18 04:30:27;;;;;;;47.30;28.55;;;;;;;16.38;100.00;100227.41;10314083;28;20063;-86
2023/09/18 04:35:28;;;;;;;47.75;30.48;;;;;;;16.39;100.00;100198.50;10311964;28;20046;-72
2023/09/18 04:40:31;;;;;;;45.95;29.15;;;;;;;15.54;100.00;100074.69;10315278;28;20034;-85
2023/09/18 04:45:32;;;;;;;50.10;28.85;;;;;;;16.43;100.00;100199.53;10311211;28;20415;-84
2023/09/18 04:50:33;;;;;;;45.67;27.58;;;;;;;16.40;100.00;100189.03;10315558;28;20094;-83
2023/09/18 04:55:34;;;;;;;41.80;26.38;;;;;;;16.54;100.00;100189.84;10296600;28;20039;-84
2023/09/18 05:00:34;;;;;;;41.50;27.55;;;;;;;16.64;100.00;100181.28;10309437;28;20047;-84
2023/09/18 05:05:35;;;;;;;44.22;25.45;;;;;;;16.71;100.00;100178.91;10301260;28;20062;-85
2023/09/18 05:10:39;;;;;;;39.38;24.83;;;;;;;16.74;100.00;100167.16;10301396;28;20054;-85
2023/09/18 05:15:39;;;;;;;41.22;25.52;;;;;;;16.79;100.00;100159.84;10314383;28;20031;-87
2023/09/18 05:20:39;;;;;;;42.40;24.55;;;;;;;16.81;100.00;100130.63;10313690;28;20035;-85
2023/09/18 05:25:41;;;;;;;41.40;24.20;;;;;;;16.73;100.00;100114.66;10310153;28;20036;-85
2023/09/18 05:30:42;;;;;;;42.10;24.05;;;;;;;16.83;100.00;100135.88;10293103;28;20429;-86
2023/09/18 05:35:44;;;;;;;35.50;21.90;;;;;;;16.85;100.00;100141.94;10314616;28;20034;-86
2023/09/18 05:40:44;;;;;;;36.42;22.48;;;;;;;16.91;100.00;100137.91;10312206;28;20035;-82
2023/09/18 05:45:45;;;;;;;35.42;21.98;;;;;;;16.99;100.00;100137.16;10311378;28;20038;-87
2023/09/18 05:50:45;;;;;;;35.53;21.25;;;;;;;17.04;100.00;100120.31;10311377;28;20047;-82
2023/09/18 05:55:46;;;;;;;34.80;22.35;;;;;;;17.11;100.00;100117.91;10310269;28;20051;-78
2023/09/18 06:00:47;;;;;;;32.03;19.55;;;;;;;17.17;100.00;100106.66;10316027;28;20089;-83
2023/09/18 06:05:47;;;;;;;34.38;21.25;;;;;;;17.23;100.00;100116.53;10317418;28;20039;-88
2023/09/18 06:10:48;;;;;;;28.25;18.20;;;;;;;17.33;100.00;100111.50;10324107;28;20042;-86
2023/09/18 06:15:48;;;;;;;33.33;19.55;;;;;;;17.45;100.00;100110.94;10311433;28;20049;-89
2023/09/18 06:20:49;;;;;;;25.60;16.55;;;;;;;17.57;100.00;100126.19;10313727;28;20039;-88
2023/09/18 06:25:55;;;;;;;27.42;16.15;;;;;;;17.64;100.00;100132.16;10321024;28;20141;-88
2023/09/18 06:30:56;;;;;;;23.80;14.25;;;;;;;17.72;100.00;100139.72;10315001;28;20130;-87
2023/09/18 06:35:56;;;;;;;20.88;12.80;;;;;;;17.80;100.00;100132.53;10321030;28;20061;-87
2023/09/18 06:40:57;;;;;;;19.30;14.25;;;;;;;17.88;100.00;100121.47;10302541;28;20050;-88
2023/09/18 06:45:57;;;;;;;21.13;12.07;;;;;;;17.95;100.00;100127.38;10318943;28;20042;-86
2023/09/18 06:50:59;;;;;;;15.82;10.07;;;;;;;18.01;100.00;100146.75;10305711;28;20050;-83
2023/09/18 06:56:00;;;;;;;15.88;9.68;;;;;;;18.08;100.00;100149.88;10316066;28;20109;-80
2023/09/18 07:01:00;;;;;;;14.27;8.32;;;;;;;18.10;100.00;100153.97;10317201;28;20026;-79
2023/09/18 07:06:01;;;;;;;15.82;9.30;;;;;;;18.11;100.00;100140.88;10289051;28;20113;-77
2023/09/18 07:11:01;;;;;;;15.57;8.65;;;;;;;18.10;100.00;100136.44;10304281;23;20045;-73
2023/09/18 07:16:03;;;;;;;15.38;9.60;;;;;;;18.11;100.00;100152.03;10380787;28;20034;-77
2023/09/18 07:21:04;;;;;;;14.40;10.07;;;;;;;18.13;100.00;100144.19;10373478;28;20042;-78
2023/09/18 07:26:06;;;;;;;13.52;10.20;;;;;;;17.87;100.00;100099.53;10377437;28;20101;-79
2023/09/18 07:31:07;;;;;;;17.30;10.48;;;;;;;18.23;100.00;100171.75;10362290;28;20045;-79
2023/09/18 07:36:07;;;;;;;22.50;11.77;;;;;;;18.20;100.00;100165.97;10377394;28;20160;-80
2023/09/18 07:41:08;;;;;;;15.93;9.90;;;;;;;18.17;100.00;100156.31;10361710;28;20041;-81
2023/09/18 07:46:08;;;;;;;15.90;11.98;;;;;;;18.24;100.00;100176.16;10368426;28;20046;-82
2023/09/18 07:51:12;;;;;;;24.10;14.82;;;;;;;18.30;100.00;100149.78;10359308;28;20045;-82
2023/09/18 07:56:12;;;;;;;21.40;14.10;;;;;;;18.21;100.00;100090.44;10326655;28;20042;-81
2023/09/18 08:01:13;;;;;;;21.80;14.32;;;;;;;18.80;100.00;100151.34;10354665;28;20045;-83
2023/09/18 08:06:18;;;;;;;18.35;14.02;;;;;;;18.98;100.00;100140.22;10372485;28;20069;-82
2023/09/18 08:11:19;;;;;;;18.88;11.43;;;;;;;19.11;100.00;100153.16;10375418;28;20080;-80
2023/09/18 08:16:19;;;;;;;12.52;9.63;;;;;;;19.14;100.00;100158.91;10373161;28;20117;-81
2023/09/18 08:21:20;;;;;;;13.50;9.48;;;;;;;19.21;100.00;100165.97;10375393;28;20030;-81
2023/09/18 08:39:41;;;;;;;13.43;8.98;;;;;;;19.37;100.00;100186.63;11413710;22;20025;31
2023/09/18 08:44:53;;;;;;;11.00;7.57;;;;;;;18.95;100.00;100141.69;10584308;23;20223;-88
2023/09/18 08:49:54;;;;;;;12.48;7.78;;;;;;;18.15;100.00;100041.59;10233861;28;20043;-91
2023/09/18 08:54:55;;;;;;;12.10;7.85;;;;;;;17.95;100.00;100016.00;10191853;28;20126;-91
2023/09/18 08:59:55;;;;;;;12.55;9.95;;;;;;;18.28;100.00;100088.00;10218393;28;20110;-84
2023/09/18 09:04:56;;;;;;;16.08;9.93;;;;;;;17.97;100.00;100028.78;10218404;28;20027;-84
2023/09/18 09:09:56;;;;;;;14.70;9.00;;;;;;;18.84;100.00;100185.81;10218263;28;20079;-85
2023/09/18 09:15:03;;;;;;;16.10;9.70;;;;;;;18.28;100.00;100078.81;10234217;28;20463;-92
2023/09/18 09:20:14;;;;;;;16.95;10.40;;;;;;;18.25;100.00;100066.38;10207501;28;20483;-91
2023/09/18 09:25:21;;;;;;;17.77;10.18;;;;;;;19.18;100.00;100197.31;10210900;28;20443;-90
2023/09/18 09:30:26;;;;;;;14.70;10.80;;;;;;;18.77;100.00;100138.06;10230572;28;20077;-85
2023/09/18 09:35:32;;;;;;;17.73;12.00;;;;;;;18.72;100.00;100108.34;10223334;28;20051;-91
2023/09/18 09:40:35;;;;;;;13.88;11.07;;;;;;;18.32;100.00;100058.31;10224583;28;20122;-91
2023/09/18 09:45:35;;;;;;;17.38;12.40;;;;;;;18.63;100.00;100132.63;10212887;28;20440;-85
2023/09/18 09:50:47;;;;;;;15.50;11.82;;;;;;;18.37;100.00;100074.06;10230713;28;20074;-85
2023/09/18 09:55:55;;;;;;;16.38;11.70;;;;;;;18.48;100.00;100030.81;10237638;28;20114;-92
2023/09/18 10:00:56;;;;;;;21.42;14.40;;;;;;;19.67;100.00;100200.69;10234896;28;20056;-92
2023/09/18 10:05:56;;;;;;;26.25;13.07;;;;;;;19.19;100.00;100053.88;10231813;28;20193;-85
2023/09/18 10:11:03;;;;;;;19.73;12.27;;;;;;;19.72;100.00;100119.53;10228114;28;20142;-92
2023/09/18 10:16:06;;;;;;;17.20;10.77;;;;;;;19.83;100.00;100090.09;10221527;28;20027;-90
2023/09/18 10:21:13;;;;;;;16.45;11.32;;;;;;;20.47;100.00;100124.59;10212420;28;20063;-90
2023/09/18 10:26:15;;;;;;;;;;;;;;;21.05;100.00;100212.38;10226184;28;20078;-91
2023/09/18 10:31:16;;;;;;;15.57;10.45;;;;;;;20.18;100.00;100097.50;10240522;28;19957;-85
2023/09/18 10:36:17;;;;;;;14.27;10.05;;;;;;;21.16;100.00;100222.00;10226737;28;20531;-89
2023/09/18 10:41:21;;;;;;;18.13;10.63;;;;;;;21.39;100.00;100221.63;10232875;28;20055;-84
2023/09/18 10:46:21;;;;;;;14.27;9.90;;;;;;;20.67;100.00;100176.97;10250746;28;20038;-85
2023/09/18 10:51:22;;;;;;;11.70;10.02;;;;;;;21.20;100.00;100226.91;10242680;28;20030;-90
2023/09/18 10:56:23;;;;;;;13.93;9.70;;;;;;;21.39;100.00;100257.22;10248373;28;20395;-85
2023/09/18 11:01:24;;;;;;;13.98;8.90;;;;;;;21.12;100.00;100190.25;10251168;28;20036;-91
2023/09/18 11:06:26;;;;;;;12.43;7.55;;;;;;;21.33;100.00;100189.41;10244541;28;20123;-90
2023/09/18 11:11:29;;;;;;;8.60;7.07;;;;;;;21.00;100.00;100064.28;10240529;28;20047;-85
2023/09/18 11:16:30;;;;;;;7.50;5.13;;;;;;;22.96;100.00;100228.19;10237696;28;20428;-90
2023/09/18 11:21:32;;;;;;;8.05;5.28;;;;;;;23.26;100.00;100225.94;10242429;28;20031;-85
2023/09/18 11:26:34;;;;;;;8.18;4.70;;;;;;;21.98;100.00;100110.47;10223178;28;20047;-92
2023/09/18 11:31:44;;;;;;;7.32;4.38;;;;;;;22.13;100.00;100126.56;10221436;28;20049;-91
2023/09/18 11:36:45;;;;;;;7.10;3.58;;;;;;;22.47;100.00;100155.31;10248149;28;20035;-90
2023/09/18 11:41:46;;;;;;;6.03;3.78;;;;;;;23.54;100.00;100197.84;10236206;28;20055;-86
2023/09/18 11:46:53;;;;;;;6.70;3.53;;;;;;;23.20;100.00;100131.88;10219284;28;20039;-86
2023/09/18 11:51:54;;;;;;;4.55;3.25;;;;;;;22.87;100.00;100081.56;10217703;28;20047;-88
2023/09/18 11:56:54;;;;;;;7.13;3.58;;;;;;;23.28;100.00;100155.38;10205610;28;20031;-90
2023/09/18 12:02:36;;;;;;;8.05;3.33;;;;;;;24.16;100.00;100197.47;10481369;27;20398;-70
2023/09/18 12:07:38;;;;;;;4.03;3.03;;;;;;;23.91;100.00;100186.41;10463534;28;20083;-70
2023/09/18 12:12:38;;;;;;;6.13;3.17;;;;;;;24.63;100.00;100185.38;10438433;28;20441;-72
2023/09/18 12:17:39;;;;;;;5.40;2.20;;;;;;;24.80;100.00;100172.09;10459483;28;20084;-71
2023/09/18 12:22:39;;;;;;;5.45;2.58;;;;;;;25.13;100.00;100191.31;10460410;28;20041;-74
2023/09/18 12:27:43;;;;;;;3.50;2.10;;;;;;;25.01;100.00;100191.44;10457054;28;20481;-71
2023/09/18 12:32:43;;;;;;;7.05;1.95;;;;;;;24.44;100.00;100182.50;10463752;28;20380;-69
2023/09/18 12:37:44;;;;;;;5.15;2.17;;;;;;;23.24;100.00;100188.16;10455980;28;20041;-70
2023/09/18 12:42:44;;;;;;;3.00;2.00;;;;;;;22.43;100.00;100191.69;10449746;28;20044;-69
2023/09/18 12:47:45;;;;;;;2.97;2.50;;;;;;;22.32;100.00;100196.09;10451045;28;20065;-69
2023/09/18 12:52:45;;;;;;;4.07;2.47;;;;;;;22.16;100.00;100218.41;10426829;28;20041;-69
2023/09/18 12:57:46;;;;;;;8.55;3.53;;;;;;;22.15;100.00;100220.34;10452836;28;20072;-68
2023/09/18 13:02:47;;;;;;;6.10;3.38;;;;;;;22.56;100.00;100200.91;10464169;28;20112;-69
2023/09/18 13:07:47;;;;;;;5.57;3.50;;;;;;;22.87;100.00;100219.09;10423990;28;20051;-69
2023/09/18 13:12:52;;;;;;;4.63;2.83;;;;;;;23.05;100.00;100202.81;10383094;28;20045;-70
2023/09/18 13:17:53;;;;;;;4.75;3.00;;;;;;;22.45;100.00;100219.34;10402519;28;20100;-69
2023/09/18 13:22:55;;;;;;;4.90;3.10;;;;;;;22.15;100.00;100222.34;10399353;28;20042;-70
2023/09/18 13:27:55;;;;;;;4.97;3.20;;;;;;;23.00;100.00;100217.88;10388670;28;20044;-69
2023/09/18 13:33:06;;;;;;;5.38;3.15;;;;;;;25.06;100.00;100202.44;10397562;28;20041;-70
2023/09/18 13:38:16;;;;;;;2.75;2.45;;;;;;;25.89;100.00;100182.34;10427003;28;20059;-70
2023/09/18 13:43:21;;;;;;;4.10;1.88;;;;;;;26.81;100.00;100170.16;10431461;28;20030;-70
2023/09/18 13:48:23;;;;;;;1.38;1.27;;;;;;;27.20;100.00;100152.91;10398633;28;20138;-71
2023/09/18 13:53:25;;;;;;;3.40;1.50;;;;;;;27.77;100.00;100128.09;10400350;28;20059;-71
2023/09/18 13:58:26;;;;;;;5.50;1.50;;;;;;;28.31;100.00;100135.03;10460122;28;20045;-71
2023/09/18 14:03:26;;;;;;;2.88;1.83;;;;;;;28.43;100.00;100127.44;10463090;28;20060;-71
2023/09/18 14:08:27;;;;;;;4.05;1.80;;;;;;;27.88;100.00;100116.91;10457307;28;20041;-70
2023/09/18 14:13:27;;;;;;;4.35;2.00;;;;;;;28.16;100.00;100122.00;10405749;28;20049;-71
2023/09/18 14:18:28;;;;;;;7.18;2.33;;;;;;;28.07;100.00;100101.69;10396662;28;20072;-69
2023/09/18 14:23:29;;;;;;;3.40;2.25;;;;;;;27.53;100.00;100089.91;10400467;28;20038;-69
2023/09/18 14:28:29;;;;;;;3.67;1.90;;;;;;;27.47;100.00;100089.47;10388763;28;20042;-71
2023/09/18 14:33:30;;;;;;;7.07;2.80;;;;;;;27.00;100.00;100068.34;10382004;28;20042;-70
2023/09/18 14:38:30;;;;;;;6.75;3.47;;;;;;;25.42;100.00;100085.66;10384464;28;20048;-69
2023/09/18 14:43:31;;;;;;;8.73;3.65;;;;;;;24.83;100.00;100070.81;10388529;28;20048;-70
2023/09/18 14:48:32;;;;;;;4.28;2.78;;;;;;;24.09;100.00;100079.19;10381081;28;20038;-70
2023/09/18 14:53:33;;;;;;;5.57;2.95;;;;;;;23.63;100.00;100087.28;10383633;28;20074;-70
2023/09/18 14:58:33;;;;;;;6.10;2.35;;;;;;;23.62;100.00;100085.63;10378964;28;20037;-70
2023/09/18 15:03:34;;;;;;;6.25;3.15;;;;;;;23.80;100.00;100081.31;10384564;28;20130;-70
2023/09/18 15:08:34;;;;;;;7.88;2.30;;;;;;;23.77;100.00;100093.28;10369332;28;20038;-69
2023/09/18 15:13:35;;;;;;;5.32;2.38;;;;;;;23.36;100.00;100101.84;10383892;28;20038;-72
2023/09/18 15:18:35;;;;;;;4.20;2.63;;;;;;;22.75;100.00;100100.06;10377283;28;20053;-69
2023/09/18 15:23:36;;;;;;;3.90;2.28;;;;;;;22.40;100.00;100110.22;10370733;28;20034;-69
2023/09/18 15:28:37;;;;;;;3.03;2.22;;;;;;;22.34;100.00;100096.44;10384243;28;20042;-68
2023/09/18 15:33:38;;;;;;;5.15;2.45;;;;;;;22.12;100.00;100100.53;10382460;28;20045;-69
2023/09/18 15:38:38;;;;;;;3.08;2.35;;;;;;;22.02;100.00;100101.00;10387760;28;20065;-69
2023/09/18 15:43:40;;;;;;;2.53;1.95;;;;;;;22.26;100.00;100088.16;10379269;28;20050;-70
2023/09/18 15:48:40;;;;;;;3.92;1.88;;;;;;;22.18;100.00;100084.31;10368306;28;20039;-70
2023/09/18 15:53:41;;;;;;;3.00;1.98;;;;;;;21.99;100.00;100089.66;10426550;28;20045;-69
2023/09/18 15:58:41;;;;;;;4.10;2.08;;;;;;;21.81;100.00;100095.50;10418443;28;20052;-72
2023/09/18 16:03:46;;;;;;;4.35;2.28;;;;;;;21.59;100.00;100076.34;10408341;28;20033;-69
2023/09/18 16:08:49;;;;;;;5.25;2.28;;;;;;;21.53;100.00;100079.34;10424576;28;20052;-70
2023/09/18 16:13:52;;;;;;;6.97;1.77;;;;;;;21.46;100.00;100062.34;10395317;28;20038;-71
2023/09/18 16:18:57;;;;;;;5.65;2.10;;;;;;;21.41;100.00;100050.50;10418149;28;20114;-69
2023/09/18 16:23:57;;;;;;;3.80;2.60;;;;;;;21.38;100.00;100054.81;10418105;28;20038;-70
2023/09/18 16:28:58;;;;;;;7.72;2.75;;;;;;;21.28;100.00;100050.47;10385225;28;20416;-70
2023/09/18 16:33:59;;;;;;;3.30;1.65;;;;;;;21.10;100.00;100058.22;10380575;28;20050;-69
2023/09/18 16:38:59;;;;;;;4.85;2.20;;;;;;;20.95;100.00;100054.09;10384274;28;20037;-70
2023/09/18 16:44:01;;;;;;;5.38;2.05;;;;;;;20.78;100.00;100054.28;10380114;28;20071;-72
2023/09/18 16:49:04;;;;;;;5.00;2.65;;;;;;;20.68;100.00;100043.53;10399581;28;20102;-70
2023/09/18 16:54:05;;;;;;;4.15;2.00;;;;;;;20.59;100.00;100039.97;10391179;28;20041;-71
2023/09/18 16:59:06;;;;;;;3.75;1.83;;;;;;;20.44;100.00;100044.19;10388373;28;20042;-70
2023/09/18 17:04:06;;;;;;;3.00;2.00;;;;;;;20.33;100.00;100032.59;10406171;28;20042;-70
2023/09/18 17:09:07;;;;;;;6.20;2.67;;;;;;;20.20;100.00;100031.72;10404568;28;20096;-72
2023/09/18 17:14:07;;;;;;;4.05;2.20;;;;;;;20.13;100.00;100040.63;10405275;28;20049;-74
2023/09/18 17:19:12;;;;;;;3.45;1.88;;;;;;;20.07;100.00;100046.75;10395901;28;20133;-72
2023/09/18 17:24:13;;;;;;;5.93;2.20;;;;;;;20.14;100.00;100069.41;10399228;28;20038;-74
2023/09/18 17:29:13;;;;;;;2.55;1.98;;;;;;;19.77;100.00;100096.22;10400057;28;20025;-70
2023/09/18 17:34:14;;;;;;;3.75;1.92;;;;;;;19.34;100.00;100097.97;10385039;28;20046;-70
2023/09/18 17:39:15;;;;;;;4.95;2.20;;;;;;;19.00;100.00;100093.28;10399827;28;20046;-69
2023/09/18 17:44:16;;;;;;;3.40;2.13;;;;;;;18.70;100.00;100126.56;10402893;28;20137;-70
2023/09/18 17:49:16;;;;;;;2.92;2.33;;;;;;;18.39;100.00;100129.47;10402104;28;20049;-71
2023/09/18 17:54:17;;;;;;;3.00;1.67;;;;;;;18.00;100.00;100131.16;10401675;28;20037;-69
2023/09/18 17:59:17;;;;;;;4.60;1.98;;;;;;;17.70;100.00;100114.16;10389247;28;20048;-69
2023/09/18 18:04:17;;;;;;;6.68;1.95;;;;;;;17.38;100.00;100118.91;10365894;28;20042;-69
2023/09/18 18:09:18;;;;;;;4.85;2.00;;;;;;;17.12;100.00;100105.66;10351892;28;20057;-70
2023/09/18 18:14:19;;;;;;;4.63;1.60;;;;;;;16.96;100.00;100100.81;10381070;28;20037;-70
2023/09/18 18:19:20;;;;;;;2.10;1.90;;;;;;;16.81;100.00;100111.16;10399504;28;20049;-70
2023/09/18 18:24:21;;;;;;;4.18;1.63;;;;;;;16.71;100.00;100108.59;10401395;28;20042;-71
2023/09/18 18:29:22;;;;;;;2.53;1.20;;;;;;;16.67;100.00;100108.38;10395532;28;20064;-71
2023/09/18 18:34:24;;;;;;;5.60;1.15;;;;;;;16.59;100.00;100109.13;10398185;28;20067;-70
2023/09/18 18:39:25;;;;;;;2.92;1.42;;;;;;;16.47;100.00;100084.66;10400812;28;20046;-69
2023/09/18 18:44:25;;;;;;;2.00;1.02;;;;;;;16.14;100.00;100057.09;10397284;28;20041;-70
2023/09/18 18:49:26;;;;;;;3.63;1.30;;;;;;;16.33;100.00;100095.84;10399830;28;20057;-71
2023/09/18 18:54:27;;;;;;;1.75;1.00;;;;;;;16.29;100.00;100094.00;10399108;28;20106;-70
2023/09/18 18:59:28;;;;;;;3.05;0.95;;;;;;;16.22;100.00;100083.28;10398306;28;20064;-70
2023/09/18 19:04:28;;;;;;;2.17;1.20;;;;;;;16.14;100.00;100086.81;10404262;28;20053;-66
2023/09/18 19:09:29;;;;;;;3.30;1.80;;;;;;;16.03;100.00;100090.94;10398881;28;20042;-69
2023/09/18 19:14:30;;;;;;;2.20;1.10;;;;;;;16.01;100.00;100087.66;10381381;28;20404;-70
2023/09/18 19:19:30;;;;;;;3.30;1.10;;;;;;;15.97;100.00;100098.56;10397387;28;20064;-72
2023/09/18 19:24:31;;;;;;;1.42;1.23;;;;;;;16.01;100.00;100082.91;10399928;28;20037;-71
2023/09/18 19:29:32;;;;;;;4.45;1.55;;;;;;;16.03;100.00;100074.28;10393081;28;20037;-70
2023/09/18 19:34:33;;;;;;;3.95;1.50;;;;;;;16.10;100.00;100080.22;10396232;28;20038;-71
2023/09/18 19:39:33;;;;;;;3.25;1.20;;;;;;;15.67;100.00;99994.53;10397864;28;20045;-71
2023/09/18 19:44:34;;;;;;;2.88;1.20;;;;;;;16.32;100.00;100083.06;10401010;28;20030;-72
2023/09/18 19:49:34;;;;;;;3.92;1.45;;;;;;;16.39;100.00;100081.81;10395976;28;20064;-72
2023/09/18 19:54:35;;;;;;;3.90;1.60;;;;;;;16.41;100.00;100082.34;10398839;28;20046;-73
2023/09/18 19:59:35;;;;;;;3.97;1.45;;;;;;;16.37;100.00;100078.53;10439779;28;20418;-73
2023/09/18 20:04:36;;;;;;;2.65;1.30;;;;;;;16.36;100.00;100074.13;10432664;28;20089;-73
2023/09/18 20:09:36;;;;;;;3.10;1.52;;;;;;;16.34;100.00;100080.00;10424124;28;20038;-73
2023/09/18 20:14:37;;;;;;;2.58;1.60;;;;;;;16.32;100.00;100063.63;10422036;28;20076;-73
2023/09/18 20:19:37;;;;;;;3.30;1.52;;;;;;;16.31;100.00;100062.00;10452631;28;20037;-74
2023/09/18 20:24:38;;;;;;;3.05;1.52;;;;;;;16.31;100.00;100058.41;10426000;28;20034;-74
2023/09/18 20:29:38;;;;;;;3.40;1.95;;;;;;;16.25;100.00;100054.91;10396249;28;20042;-74
2023/09/18 20:34:40;;;;;;;6.18;2.00;;;;;;;16.23;100.00;100075.81;10369336;28;20034;-76
2023/09/18 20:39:40;;;;;;;4.28;2.60;;;;;;;16.23;100.00;100073.84;10370858;28;20590;-72
2023/09/18 20:44:41;;;;;;;2.78;2.00;;;;;;;16.21;100.00;100076.13;10401496;28;20049;-73
2023/09/18 20:49:42;;;;;;;3.85;2.25;;;;;;;16.14;100.00;100086.81;10426172;28;20135;-73
2023/09/18 20:54:44;;;;;;;4.50;2.30;;;;;;;16.12;100.00;100094.63;10430190;28;20563;-74
2023/09/18 20:59:44;;;;;;;8.50;2.83;;;;;;;16.11;100.00;100081.88;10425208;28;20372;-75
2023/09/18 21:04:45;;;;;;;6.45;2.30;;;;;;;16.26;100.00;100089.06;10433126;28;20514;-76
2023/09/18 21:09:46;;;;;;;7.88;2.60;;;;;;;16.38;100.00;100116.31;10383668;28;20038;-73
2023/09/18 21:14:47;;;;;;;6.55;2.28;;;;;;;16.40;100.00;100144.59;10401623;28;20049;-72
2023/09/18 21:19:47;;;;;;;7.40;2.85;;;;;;;16.24;100.00;100177.41;10399515;28;20119;-72
2023/09/18 21:24:48;;;;;;;10.48;2.10;;;;;;;16.12;100.00;100172.38;10394348;28;20041;-71
2023/09/18 21:29:49;;;;;;;7.07;1.75;;;;;;;16.01;100.00;100177.31;10405303;28;20039;-71
2023/09/18 21:34:49;;;;;;;5.05;1.90;;;;;;;15.86;100.00;100175.66;10380211;28;20524;-70
2023/09/18 21:39:50;;;;;;;8.73;2.00;;;;;;;15.76;100.00;100198.06;10368366;28;20046;-70
2023/09/18 21:44:51;;;;;;;6.28;2.13;;;;;;;15.73;100.00;100185.63;10397612;28;20038;-69
2023/09/18 21:49:51;;;;;;;8.68;2.08;;;;;;;15.73;100.00;100205.06;10382601;28;20058;-70
2023/09/18 21:54:52;;;;;;;8.90;2.97;;;;;;;15.74;100.00;100201.13;10398728;28;20048;-70
2023/09/18 21:59:52;;;;;;;7.53;2.28;;;;;;;15.69;100.00;100197.63;10395180;28;20050;-70
2023/09/18 22:04:53;;;;;;;7.43;2.60;;;;;;;15.66;100.00;100201.81;10400157;28;20033;-70
2023/09/18 22:09:56;;;;;;;9.30;2.97;;;;;;;15.68;100.00;100229.25;10400582;28;20038;-71
2023/09/18 22:14:58;;;;;;;8.57;1.98;;;;;;;15.66;100.00;100234.28;10400797;28;20049;-70
2023/09/18 22:19:58;;;;;;;4.15;1.38;;;;;;;15.62;100.00;100233.25;10399502;28;20094;-70
2023/09/18 22:24:59;;;;;;;8.05;1.65;;;;;;;15.56;100.00;100249.16;10415927;28;20471;-74
2023/09/18 22:30:00;;;;;;;9.25;3.17;;;;;;;15.53;100.00;100255.31;10396687;28;20040;-73
2023/09/18 22:35:00;;;;;;;4.03;1.27;;;;;;;15.47;100.00;100264.84;10398848;28;20037;-73
2023/09/18 22:40:07;;;;;;;5.90;1.60;;;;;;;15.46;100.00;100265.97;10397362;28;20052;-73
2023/09/18 22:45:45;;;;;;;6.65;1.42;;;;;;;15.40;100.00;100279.09;10398340;28;20041;-73
2023/09/18 22:51:23;;;;;;;8.18;1.35;;;;;;;15.33;100.00;100284.19;10440684;28;20057;-73